createdAt,value
2018-10-18T00:02:42.272Z,14.30
2018-10-18T00:05:47.233Z,13.83
2018-10-18T00:08:53.779Z,15.00
2018-10-18T00:12:00.567Z,15.00
2018-10-18T00:15:08.918Z,15.10
2018-10-18T00:18:15.994Z,15.70
2018-10-18T00:21:20.988Z,14.93
2018-10-18T00:24:26.011Z,14.10
2018-10-18T00:27:32.730Z,13.57
2018-10-18T00:30:37.741Z,14.30
2018-10-18T00:33:44.517Z,15.00
2018-10-18T00:36:51.218Z,14.50
2018-10-18T00:39:58.118Z,15.33
2018-10-18T00:43:04.770Z,14.37
2018-10-18T00:46:11.958Z,14.33
2018-10-18T00:49:16.968Z,14.27
2018-10-18T00:52:23.658Z,15.87
2018-10-18T00:55:31.901Z,16.07
2018-10-18T00:58:38.859Z,14.90
2018-10-18T01:01:45.531Z,15.10
2018-10-18T01:04:54.496Z,16.27
2018-10-18T01:07:59.558Z,15.17
2018-10-18T01:11:05.765Z,16.10
2018-10-18T01:14:12.354Z,15.77
2018-10-18T01:17:18.977Z,14.73
2018-10-18T01:20:25.578Z,15.10
2018-10-18T01:23:34.001Z,14.97
2018-10-18T01:26:38.985Z,15.73
2018-10-18T01:29:43.984Z,14.30
2018-10-18T01:32:49.041Z,15.37
2018-10-18T01:35:56.052Z,14.40
2018-10-18T01:39:03.654Z,14.23
2018-10-18T01:42:10.403Z,14.10
2018-10-18T01:45:17.122Z,15.93
2018-10-18T01:48:22.180Z,15.20
2018-10-18T01:51:27.206Z,14.63
2018-10-18T01:54:34.042Z,15.37
2018-10-18T01:57:40.949Z,15.20
2018-10-18T02:00:47.598Z,16.20
2018-10-18T02:03:52.584Z,14.73
2018-10-18T02:06:57.650Z,15.13
2018-10-18T02:10:03.813Z,15.23
2018-10-18T02:13:08.790Z,16.63
2018-10-18T02:16:15.498Z,15.10
2018-10-18T02:19:22.141Z,15.73
2018-10-18T02:22:27.133Z,16.30
2018-10-18T02:25:33.748Z,15.43
2018-10-18T02:28:40.361Z,15.37
2018-10-18T02:31:48.968Z,14.43
2018-10-18T02:34:53.961Z,15.43
2018-10-18T02:38:00.954Z,15.67
2018-10-18T02:41:08.074Z,15.30
2018-10-18T02:44:14.833Z,15.90
2018-10-18T02:47:21.531Z,14.63
2018-10-18T02:50:28.456Z,16.27
2018-10-18T02:53:35.253Z,13.60
2018-10-18T02:56:40.270Z,15.53
2018-10-18T02:59:47.284Z,15.27
2018-10-18T03:02:52.297Z,15.33
2018-10-18T03:05:58.923Z,15.07
2018-10-18T03:09:06.869Z,14.60
2018-10-18T03:12:11.957Z,14.57
2018-10-18T03:15:16.906Z,15.10
2018-10-18T03:18:27.639Z,13.97
2018-10-18T03:21:34.807Z,14.37
2018-10-18T03:24:41.825Z,14.37
2018-10-18T03:27:48.701Z,14.67
2018-10-18T03:30:53.778Z,14.47
2018-10-18T03:34:00.465Z,14.70
2018-10-18T03:37:05.505Z,14.97
2018-10-18T03:40:12.384Z,15.53
2018-10-18T03:43:19.425Z,15.87
2018-10-18T03:46:26.297Z,15.00
2018-10-18T03:49:32.963Z,14.43
2018-10-18T03:52:39.709Z,13.47
2018-10-18T03:55:46.448Z,15.30
2018-10-18T03:58:51.418Z,14.90
2018-10-18T04:01:58.184Z,15.53
2018-10-18T04:05:12.618Z,15.50
2018-10-18T04:08:19.239Z,15.33
2018-10-18T04:11:24.267Z,15.03
2018-10-18T04:14:29.294Z,14.23
2018-10-18T04:17:34.338Z,14.23
2018-10-18T04:20:41.287Z,13.20
2018-10-18T04:23:48.431Z,14.73
2018-10-18T04:26:53.454Z,15.33
2018-10-18T04:30:00.129Z,14.80
2018-10-18T04:33:08.672Z,15.03
2018-10-18T04:36:15.683Z,14.70
2018-10-18T04:39:20.526Z,12.80
2018-10-18T04:42:25.468Z,13.97
2018-10-18T04:45:30.425Z,15.10
2018-10-18T04:48:35.526Z,13.97
2018-10-18T04:51:40.332Z,14.00
2018-10-18T04:54:46.929Z,15.13
2018-10-18T04:57:51.893Z,15.07
2018-10-18T05:00:56.886Z,13.17
2018-10-18T05:04:01.866Z,13.63
2018-10-18T05:07:06.889Z,15.37
2018-10-18T05:10:11.826Z,15.07
2018-10-18T05:14:58.369Z,15.47
2018-10-18T05:18:03.699Z,12.63
2018-10-18T05:21:08.718Z,14.40
2018-10-18T05:24:13.738Z,12.97
2018-10-18T05:27:18.694Z,13.73
2018-10-18T05:30:23.670Z,13.07
2018-10-18T05:33:28.687Z,12.50
2018-10-18T05:36:33.648Z,12.33
2018-10-18T05:39:38.663Z,11.47
2018-10-18T05:42:43.695Z,12.40
2018-10-18T05:45:48.701Z,14.17
2018-10-18T05:48:53.730Z,13.70
2018-10-18T05:51:58.713Z,13.33
2018-10-18T05:55:04.786Z,13.33
2018-10-18T05:58:09.685Z,13.37
2018-10-18T06:01:14.752Z,15.50
2018-10-18T06:04:25.433Z,14.23
2018-10-18T06:07:30.381Z,15.00
2018-10-18T06:10:46.977Z,15.80
2018-10-18T06:13:52.291Z,14.60
2018-10-18T06:16:57.423Z,14.90
2018-10-18T06:20:02.392Z,13.43
2018-10-18T06:23:07.383Z,17.23
2018-10-18T06:26:12.351Z,17.70
2018-10-18T06:29:17.357Z,32.47
2018-10-18T06:32:22.304Z,22.97
2018-10-18T06:35:27.246Z,16.83
2018-10-18T06:38:32.214Z,16.43
2018-10-18T06:41:38.148Z,16.27
2018-10-18T06:44:43.120Z,16.00
2018-10-18T06:47:48.251Z,16.93
2018-10-18T06:50:53.096Z,17.27
2018-10-18T06:53:58.402Z,16.60
2018-10-18T06:57:04.927Z,18.00
2018-10-18T07:00:12.412Z,17.83
2018-10-18T07:03:17.393Z,16.30
2018-10-18T07:06:22.440Z,15.37
2018-10-18T07:09:46.439Z,17.73
2018-10-18T07:12:51.411Z,17.57
2018-10-18T07:15:56.546Z,28.93
2018-10-18T07:19:01.548Z,30.73
2018-10-18T07:22:07.078Z,29.37
2018-10-18T07:25:13.579Z,24.00
2018-10-18T07:28:18.578Z,21.43
2018-10-18T07:31:23.543Z,20.53
2018-10-18T07:34:28.571Z,22.77
2018-10-18T07:37:33.549Z,23.57
2018-10-18T07:40:38.552Z,20.83
2018-10-18T07:43:43.537Z,21.07
2018-10-18T07:47:00.568Z,22.03
2018-10-18T07:50:05.969Z,24.47
2018-10-18T07:53:19.429Z,25.33
2018-10-18T07:56:24.387Z,25.73
2018-10-18T07:59:37.541Z,26.00
2018-10-18T08:02:43.397Z,28.67
2018-10-18T08:05:48.561Z,38.63
2018-10-18T08:08:54.141Z,38.93
2018-10-18T08:11:59.806Z,33.30
2018-10-18T08:15:06.213Z,32.90
2018-10-18T08:18:18.155Z,33.90
2018-10-18T08:21:23.144Z,33.40
2018-10-18T08:24:28.085Z,42.27
2018-10-18T08:27:33.512Z,45.17
2018-10-18T08:30:38.482Z,46.40
2018-10-18T08:33:43.430Z,45.97
2018-10-18T08:36:48.465Z,46.20
2018-10-18T08:39:53.991Z,46.27
2018-10-18T08:42:58.975Z,45.60
2018-10-18T08:46:04.130Z,45.63
2018-10-18T08:49:09.120Z,46.43
2018-10-18T08:52:14.073Z,46.33
2018-10-18T08:55:19.141Z,45.80
2018-10-18T08:58:24.172Z,47.63
2018-10-18T09:01:29.146Z,45.33
2018-10-18T09:04:34.111Z,46.67
2018-10-18T09:07:39.075Z,47.27
2018-10-18T09:10:44.092Z,45.70
2018-10-18T09:13:49.094Z,45.87
2018-10-18T09:16:56.171Z,44.57
2018-10-18T09:20:01.139Z,43.07
2018-10-18T09:23:06.159Z,43.70
2018-10-18T09:29:42.199Z,42.53
2018-10-18T09:32:48.260Z,40.83
2018-10-18T09:35:53.258Z,40.43
2018-10-18T09:38:58.234Z,38.00
2018-10-18T09:42:03.253Z,37.57
2018-10-18T09:45:09.949Z,36.67
2018-10-18T09:48:15.078Z,35.97
2018-10-18T09:51:26.739Z,34.83
2018-10-18T09:54:31.744Z,37.27
2018-10-18T09:57:36.737Z,37.47
2018-10-18T10:00:47.619Z,38.37
2018-10-18T10:03:52.609Z,38.93
2018-10-18T10:06:57.651Z,38.53
2018-10-18T10:10:02.665Z,36.77
2018-10-18T10:13:08.075Z,35.27
2018-10-18T10:16:13.626Z,34.73
2018-10-18T10:19:18.722Z,34.00
2018-10-18T10:22:23.658Z,34.37
2018-10-18T10:25:28.656Z,34.93
2018-10-18T10:28:33.661Z,32.30
2018-10-18T10:31:38.647Z,32.53
2018-10-18T10:34:43.687Z,32.23
2018-10-18T10:41:20.189Z,30.83
2018-10-18T10:44:25.201Z,31.50
2018-10-18T10:47:30.235Z,30.70
2018-10-18T10:50:35.335Z,31.70
2018-10-18T10:53:40.465Z,31.27
2018-10-18T10:56:47.504Z,30.73
2018-10-18T10:59:52.588Z,30.53
2018-10-18T11:02:57.592Z,29.63
2018-10-18T11:06:02.624Z,31.67
2018-10-18T11:09:08.966Z,29.07
2018-10-18T11:12:14.030Z,30.07
2018-10-18T11:15:19.136Z,28.83
2018-10-18T11:18:24.082Z,29.43
2018-10-18T11:21:29.115Z,29.23
2018-10-18T11:24:34.161Z,28.97
2018-10-18T11:34:40.774Z,29.23
2018-10-18T11:37:45.791Z,28.97
2018-10-18T11:40:50.802Z,28.67
2018-10-18T11:43:55.785Z,27.97
2018-10-18T11:47:00.794Z,30.10
2018-10-18T11:50:05.847Z,29.80
2018-10-18T11:53:10.884Z,29.43
2018-10-18T11:56:15.960Z,28.10
2018-10-18T11:59:20.900Z,28.47
2018-10-18T12:02:25.945Z,26.77
2018-10-18T12:05:30.902Z,26.37
2018-10-18T12:08:35.929Z,27.13
2018-10-18T12:14:57.458Z,25.50
2018-10-18T12:18:02.454Z,26.93
2018-10-18T12:21:13.308Z,26.50
2018-10-18T12:24:18.720Z,27.07
2018-10-18T12:27:23.725Z,28.43
2018-10-18T12:30:28.697Z,29.47
2018-10-18T12:33:33.682Z,26.57
2018-10-18T12:36:38.642Z,29.03
2018-10-18T12:39:43.745Z,26.63
2018-10-18T12:42:49.304Z,26.70
2018-10-18T12:45:54.261Z,27.13
2018-10-18T12:48:59.254Z,25.73
2018-10-18T12:52:04.734Z,27.57
2018-10-18T12:55:09.737Z,26.20
2018-10-18T12:58:14.725Z,26.40
2018-10-18T13:01:19.736Z,25.67
2018-10-18T13:04:24.742Z,24.10
2018-10-18T13:11:00.554Z,21.70
2018-10-18T13:14:05.774Z,21.20
2018-10-18T13:17:10.780Z,21.93
2018-10-18T13:20:15.883Z,23.60
2018-10-18T13:23:20.814Z,21.37
2018-10-18T13:26:25.821Z,21.23
2018-10-18T13:29:30.829Z,19.43
2018-10-18T13:32:35.865Z,20.50
2018-10-18T13:35:40.881Z,20.97
2018-10-18T13:38:45.879Z,20.47
2018-10-18T13:41:50.887Z,18.73
2018-10-18T13:44:57.626Z,16.03
2018-10-18T13:48:04.587Z,15.47
2018-10-18T13:51:09.722Z,15.77
2018-10-18T13:54:19.080Z,15.07
2018-10-18T13:57:26.227Z,17.27
2018-10-18T14:00:33.439Z,15.30
2018-10-18T14:03:40.182Z,20.83
2018-10-18T14:06:47.870Z,22.00
2018-10-18T14:09:52.857Z,21.23
2018-10-18T14:12:59.618Z,22.53
2018-10-18T14:16:06.150Z,20.90
2018-10-18T14:19:13.890Z,21.00
2018-10-18T14:22:20.962Z,21.33
2018-10-18T14:25:27.905Z,23.47
2018-10-18T14:28:38.169Z,21.60
2018-10-18T14:31:45.110Z,21.93
2018-10-18T14:34:51.737Z,23.13
2018-10-18T14:37:58.994Z,21.70
2018-10-18T14:41:07.816Z,21.13
2018-10-18T14:44:16.035Z,21.73
2018-10-18T14:47:23.198Z,22.80
2018-10-18T14:50:28.159Z,23.93
2018-10-18T14:53:37.184Z,23.10
2018-10-18T14:56:46.132Z,23.10
2018-10-18T14:59:55.657Z,23.40
2018-10-18T15:03:01.785Z,25.00
2018-10-18T15:06:08.550Z,24.67
2018-10-18T15:09:15.317Z,25.67
2018-10-18T15:12:22.477Z,25.90
2018-10-18T15:15:29.348Z,26.33
2018-10-18T15:18:34.393Z,25.90
2018-10-18T15:21:39.507Z,25.93
2018-10-18T15:24:44.548Z,26.93
2018-10-18T15:27:51.794Z,25.37
2018-10-18T15:30:58.540Z,27.70
2018-10-18T15:34:06.032Z,26.97
2018-10-18T15:37:11.106Z,27.10
2018-10-18T15:40:16.166Z,25.80
2018-10-18T15:43:25.273Z,26.57
2018-10-18T15:46:30.557Z,26.07
2018-10-18T15:49:35.559Z,23.93
2018-10-18T15:52:40.638Z,24.97
2018-10-18T15:55:45.673Z,25.33
2018-10-18T15:58:52.453Z,25.63
2018-10-18T16:01:59.030Z,25.67
2018-10-18T16:05:07.314Z,25.17
2018-10-18T16:08:14.402Z,26.40
2018-10-18T16:11:33.955Z,27.17
2018-10-18T16:14:39.011Z,26.93
2018-10-18T16:17:48.720Z,25.93
2018-10-18T16:20:57.221Z,27.87
2018-10-18T16:24:04.367Z,28.13
2018-10-18T16:27:11.270Z,27.60
2018-10-18T16:30:19.462Z,28.43
2018-10-18T16:33:26.637Z,29.03
2018-10-18T16:36:35.828Z,26.60
2018-10-18T16:42:43.950Z,32.77
2018-10-18T16:45:50.631Z,27.33
2018-10-18T16:48:57.393Z,29.63
2018-10-18T16:52:03.764Z,32.87
2018-10-18T16:55:10.530Z,33.70
2018-10-18T16:58:17.300Z,31.07
2018-10-18T17:01:25.769Z,29.57
2018-10-18T17:04:32.963Z,31.37
2018-10-18T17:07:42.009Z,29.47
2018-10-18T17:10:47.148Z,28.50
2018-10-18T17:13:54.564Z,28.63
2018-10-18T17:17:01.878Z,30.47
2018-10-18T17:20:08.848Z,29.33
2018-10-18T17:23:15.624Z,32.00
2018-10-18T17:26:23.347Z,29.80
2018-10-18T17:29:33.477Z,40.13
2018-10-18T17:32:42.567Z,34.07
2018-10-18T17:35:49.342Z,37.93
2018-10-18T17:38:56.358Z,38.13
2018-10-18T17:42:03.234Z,36.90
2018-10-18T17:45:11.425Z,47.90
2018-10-18T17:48:18.653Z,50.47
2018-10-18T17:51:25.325Z,47.80
2018-10-18T17:54:32.315Z,66.00
2018-10-18T17:57:37.813Z,72.23
2018-10-18T18:00:48.663Z,76.83
2018-10-18T18:03:53.687Z,76.40
2018-10-18T18:06:58.797Z,61.57
2018-10-18T18:10:07.580Z,48.37
2018-10-18T18:13:13.201Z,45.60
2018-10-18T18:16:18.163Z,41.63
2018-10-18T18:19:27.064Z,40.77
2018-10-18T18:22:34.036Z,38.03
2018-10-18T18:25:48.469Z,41.20
2018-10-18T18:28:56.214Z,39.17
2018-10-18T18:32:01.265Z,38.97
2018-10-18T18:35:08.482Z,41.50
2018-10-18T18:38:17.087Z,43.13
2018-10-18T18:41:24.325Z,39.30
2018-10-18T18:44:31.833Z,38.67
2018-10-18T18:47:37.930Z,38.67
2018-10-18T18:50:46.486Z,41.07
2018-10-18T18:53:53.800Z,55.97
2018-10-18T18:57:00.872Z,49.33
2018-10-18T19:00:15.376Z,43.20
2018-10-18T19:03:20.852Z,46.87
2018-10-18T19:06:28.057Z,53.57
2018-10-18T19:09:45.631Z,45.60
2018-10-18T19:12:52.799Z,51.17
2018-10-18T19:15:59.450Z,43.03
2018-10-18T19:19:12.979Z,41.70
2018-10-18T19:22:18.381Z,40.43
2018-10-18T19:25:27.373Z,38.37
2018-10-18T19:28:32.466Z,38.07
2018-10-18T19:31:39.552Z,38.97
2018-10-18T19:34:47.721Z,38.13
2018-10-18T19:37:55.234Z,37.67
2018-10-18T19:41:00.210Z,41.20
2018-10-18T19:44:07.294Z,45.03
2018-10-18T19:47:12.314Z,41.37
2018-10-18T19:50:18.956Z,39.07
2018-10-18T19:53:24.178Z,45.30
2018-10-18T19:56:31.536Z,50.10
2018-10-18T19:59:38.751Z,45.57
2018-10-18T20:02:56.307Z,50.40
2018-10-18T20:06:01.405Z,50.97
2018-10-18T20:13:07.384Z,43.10
2018-10-18T20:16:14.936Z,47.00
2018-10-18T20:19:20.358Z,44.27
2018-10-18T20:22:27.626Z,44.27
2018-10-18T20:25:36.049Z,44.10
2018-10-18T20:28:42.753Z,44.33
2018-10-18T20:31:48.240Z,47.90
2018-10-18T20:34:53.502Z,51.97
2018-10-18T20:38:05.172Z,50.57
2018-10-18T20:41:10.418Z,42.83
2018-10-18T20:44:15.399Z,41.80
2018-10-18T20:47:20.573Z,41.20
2018-10-18T20:50:25.518Z,40.47
2018-10-18T20:53:34.962Z,41.33
2018-10-18T20:56:39.978Z,42.47
2018-10-18T20:59:44.970Z,42.47
2018-10-18T21:02:50.040Z,42.27
2018-10-18T21:05:55.275Z,51.70
2018-10-18T21:09:02.563Z,44.03
2018-10-18T21:15:04.169Z,43.83
2018-10-18T21:18:09.140Z,41.13
2018-10-18T21:21:14.251Z,42.23
2018-10-18T21:24:19.191Z,40.80
2018-10-18T21:27:25.933Z,43.03
2018-10-18T21:30:30.954Z,40.90
2018-10-18T21:33:35.965Z,40.63
2018-10-18T21:36:42.859Z,39.93
2018-10-18T21:39:47.870Z,40.57
2018-10-18T21:42:54.553Z,55.77
2018-10-18T21:45:59.686Z,42.03
2018-10-18T21:49:04.711Z,47.97
2018-10-18T21:52:09.763Z,51.97
2018-10-18T21:55:14.780Z,41.67
2018-10-18T21:58:19.865Z,39.97
2018-10-18T22:01:24.908Z,39.70
2018-10-18T22:04:29.966Z,44.83
2018-10-18T22:07:35.027Z,47.53
2018-10-18T22:10:42.175Z,50.30
2018-10-18T22:13:48.577Z,49.37
2018-10-18T22:16:55.518Z,42.90
2018-10-18T22:20:00.500Z,40.87
2018-10-18T22:23:07.494Z,57.77
2018-10-18T22:26:14.019Z,80.67
2018-10-18T22:29:22.630Z,44.03
2018-10-18T22:32:29.767Z,47.17
2018-10-18T22:35:34.799Z,41.00
2018-10-18T22:38:39.855Z,42.43
2018-10-18T22:41:46.865Z,39.40
2018-10-18T22:44:54.011Z,38.37
2018-10-18T22:48:00.964Z,36.93
2018-10-18T22:51:07.671Z,39.60
2018-10-18T22:54:14.155Z,39.60
2018-10-18T22:57:21.294Z,39.60
2018-10-18T23:00:26.312Z,40.60
2018-10-18T23:03:35.259Z,40.67
2018-10-18T23:06:41.968Z,40.20
2018-10-18T23:09:46.994Z,39.50
2018-10-18T23:12:53.741Z,39.13
2018-10-18T23:16:00.671Z,42.60
2018-10-18T23:19:08.399Z,39.03
2018-10-18T23:22:13.433Z,41.47
2018-10-18T23:25:22.502Z,37.17
2018-10-18T23:28:29.282Z,36.20
2018-10-18T23:31:34.322Z,38.03
2018-10-18T23:34:41.324Z,37.57
2018-10-18T23:37:46.317Z,39.20
2018-10-18T23:40:55.693Z,38.50
2018-10-18T23:44:02.358Z,37.90
2018-10-18T23:47:07.470Z,36.60
2018-10-18T23:50:14.328Z,36.83
2018-10-18T23:53:22.970Z,34.97
2018-10-18T23:56:29.385Z,36.23
2018-10-18T23:59:36.040Z,34.87
